createdAt,value
2022-09-10T00:01:22.911Z,100852.69
2022-09-10T00:03:50.852Z,100850.19
2022-09-10T00:06:19.627Z,100850.28
2022-09-10T00:08:49.213Z,100853.81
2022-09-10T00:11:17.005Z,100852.00
2022-09-10T00:13:45.246Z,100853.81
2022-09-10T00:16:15.406Z,100846.97
2022-09-10T00:18:43.947Z,100843.56
2022-09-10T00:21:14.534Z,100831.59
2022-09-10T00:23:45.683Z,100844.47
2022-09-10T00:26:19.030Z,100839.50
2022-09-10T00:28:47.002Z,100845.53
2022-09-10T00:31:14.816Z,100840.44
2022-09-10T00:33:42.806Z,100834.44
2022-09-10T00:36:22.960Z,100850.09
2022-09-10T00:38:51.501Z,100850.16
2022-09-10T00:41:21.351Z,100826.06
2022-09-10T00:43:52.041Z,100849.28
2022-09-10T00:46:47.587Z,100863.22
2022-09-10T00:49:20.325Z,100866.78
2022-09-10T00:51:49.303Z,100860.63
2022-09-10T00:54:19.119Z,100862.44
2022-09-10T00:56:48.035Z,100842.63
2022-09-10T00:59:19.126Z,100856.31
2022-09-10T01:01:49.292Z,100855.53
2022-09-10T01:04:17.422Z,100855.59
2022-09-10T01:06:46.518Z,100858.19
2022-09-10T01:09:17.658Z,100854.66
2022-09-10T01:11:58.417Z,100853.03
2022-09-10T01:14:56.493Z,100844.53
2022-09-10T01:17:36.070Z,100849.66
2022-09-10T01:20:36.714Z,100859.25
2022-09-10T01:23:51.490Z,100863.75
2022-09-10T01:26:58.960Z,100857.63
2022-09-10T01:29:37.160Z,100865.50
2022-09-10T01:32:15.331Z,100867.31
2022-09-10T01:34:56.184Z,100868.28
2022-09-10T01:37:30.197Z,100855.25
2022-09-10T01:40:01.072Z,100863.94
2022-09-10T01:42:29.566Z,100855.19
2022-09-10T01:44:59.844Z,100855.16
2022-09-10T01:47:51.074Z,100856.94
2022-09-10T01:50:38.779Z,100858.56
2022-09-10T01:53:33.323Z,100862.13
2022-09-10T01:56:06.521Z,100858.72
2022-09-10T01:58:38.854Z,100860.34
2022-09-10T02:01:34.116Z,100849.00
2022-09-10T02:04:08.005Z,100856.81
2022-09-10T02:06:40.950Z,100839.53
2022-09-10T02:09:09.702Z,100849.88
2022-09-10T02:11:53.320Z,100842.06
2022-09-10T02:14:21.651Z,100839.47
2022-09-10T02:16:55.632Z,100850.75
2022-09-10T02:19:23.105Z,100844.53
2022-09-10T02:21:50.746Z,100848.94
2022-09-10T02:24:18.271Z,100847.09
2022-09-10T02:26:46.576Z,100843.56
2022-09-10T02:29:16.105Z,100848.75
2022-09-10T02:31:44.799Z,100851.38
2022-09-10T02:34:12.390Z,100847.97
2022-09-10T02:36:40.447Z,100828.81
2022-09-10T02:39:08.136Z,100847.84
2022-09-10T02:41:35.638Z,100845.16
2022-09-10T02:44:03.805Z,100837.25
2022-09-10T02:46:31.833Z,100856.50
2022-09-10T02:48:59.755Z,100849.34
2022-09-10T02:51:27.364Z,100839.84
2022-09-10T02:53:55.710Z,100831.22
2022-09-10T02:56:23.978Z,100838.94
2022-09-10T02:58:52.223Z,100838.94
2022-09-10T03:01:22.571Z,100835.59
2022-09-10T03:03:52.187Z,100845.84
2022-09-10T03:06:21.148Z,100842.28
2022-09-10T03:08:49.534Z,100838.81
2022-09-10T03:11:17.831Z,100838.75
2022-09-10T03:13:47.551Z,100833.56
2022-09-10T03:16:15.864Z,100832.81
2022-09-10T03:18:43.751Z,100837.81
2022-09-10T03:21:14.877Z,100829.13
2022-09-10T03:23:44.816Z,100822.09
2022-09-10T03:26:14.051Z,100823.03
2022-09-10T03:28:43.575Z,100832.66
2022-09-10T03:31:12.129Z,100828.16
2022-09-10T03:33:40.111Z,100819.50
2022-09-10T03:36:08.854Z,100824.66
2022-09-10T03:38:36.407Z,100823.03
2022-09-10T03:41:04.128Z,100808.22
2022-09-10T03:43:32.012Z,100819.50
2022-09-10T03:45:59.696Z,100816.78
2022-09-10T03:48:27.238Z,100821.91
2022-09-10T03:50:54.705Z,100804.75
2022-09-10T03:53:22.372Z,100828.00
2022-09-10T03:55:51.028Z,100813.03
2022-09-10T03:58:19.369Z,100820.97
2022-09-10T04:00:46.974Z,100819.19
2022-09-10T04:03:15.402Z,100822.69
2022-09-10T04:05:44.647Z,100817.44
2022-09-10T04:08:13.653Z,100813.00
2022-09-10T04:10:42.481Z,100813.91
2022-09-10T04:13:10.229Z,100817.44
2022-09-10T04:15:38.072Z,100820.09
2022-09-10T04:18:06.685Z,100820.88
2022-09-10T04:20:35.142Z,100820.03
2022-09-10T04:23:02.941Z,100825.31
2022-09-10T04:25:30.625Z,100824.41
2022-09-10T04:27:58.140Z,100813.09
2022-09-10T04:30:26.174Z,100822.50
2022-09-10T04:32:54.769Z,100819.09
2022-09-10T04:35:22.325Z,100813.03
2022-09-10T04:37:50.033Z,100810.47
2022-09-10T04:40:17.615Z,100811.38
2022-09-10T04:42:45.095Z,100816.66
2022-09-10T04:45:12.891Z,100822.72
2022-09-10T04:47:40.313Z,100833.25
2022-09-10T04:50:08.506Z,100831.44
2022-09-10T04:52:36.029Z,100826.38
2022-09-10T04:55:03.536Z,100833.25
2022-09-10T04:57:30.998Z,100833.25
2022-09-10T04:59:58.424Z,100831.44
2022-09-10T05:02:26.035Z,100847.25
2022-09-10T05:04:53.622Z,100836.59
2022-09-10T05:07:21.124Z,100838.31
2022-09-10T05:09:48.706Z,100827.06
2022-09-10T05:12:16.720Z,100817.66
2022-09-10T05:14:44.232Z,100837.34
2022-09-10T05:17:11.721Z,100843.56
2022-09-10T05:19:39.159Z,100834.72
2022-09-10T05:22:06.851Z,100848.66
2022-09-10T05:24:34.633Z,100834.56
2022-09-10T05:27:02.148Z,100841.44
2022-09-10T05:29:29.874Z,100831.22
2022-09-10T05:31:57.423Z,100848.47
2022-09-10T05:34:24.967Z,100843.16
2022-09-10T05:36:52.580Z,100843.06
2022-09-10T05:39:20.251Z,100837.81
2022-09-10T05:41:47.828Z,100844.72
2022-09-10T05:44:15.288Z,100836.91
2022-09-10T05:46:42.762Z,100849.00
2022-09-10T05:49:10.262Z,100845.53
2022-09-10T05:51:37.717Z,100846.38
2022-09-10T05:54:05.247Z,100855.03
2022-09-10T05:56:32.774Z,100860.09
2022-09-10T05:59:00.300Z,100862.69
2022-09-10T06:01:29.261Z,100858.22
2022-09-10T06:03:56.786Z,100863.22
2022-09-10T06:06:24.821Z,100863.03
2022-09-10T06:08:53.435Z,100866.47
2022-09-10T06:11:21.042Z,100875.94
2022-09-10T06:13:49.258Z,100871.44
2022-09-10T06:16:17.722Z,100867.91
2022-09-10T06:18:45.567Z,100878.53
2022-09-10T06:21:15.159Z,100881.03
2022-09-10T06:23:43.416Z,100876.63
2022-09-10T06:26:13.987Z,100879.16
2022-09-10T06:28:42.025Z,100858.22
2022-09-10T06:31:11.906Z,100872.09
2022-09-10T06:33:39.445Z,100870.16
2022-09-10T06:36:07.300Z,100874.59
2022-09-10T06:38:36.220Z,100867.50
2022-09-10T06:41:06.331Z,100874.34
2022-09-10T06:43:36.578Z,100883.16
2022-09-10T06:47:02.891Z,100886.50
2022-09-10T06:49:12.806Z,100884.78
2022-09-10T06:51:40.540Z,100890.97
2022-09-10T06:54:08.531Z,100900.47
2022-09-10T06:56:36.230Z,100902.19
2022-09-10T06:59:03.715Z,100912.22
2022-09-10T07:01:31.251Z,100906.06
2022-09-10T07:04:01.151Z,100912.94
2022-09-10T07:06:34.769Z,100917.19
2022-09-10T07:09:02.744Z,100925.81
2022-09-10T07:11:32.075Z,100918.44
2022-09-10T07:14:01.303Z,100921.41
2022-09-10T07:16:29.522Z,100912.53
2022-09-10T07:18:59.147Z,100915.56
2022-09-10T07:21:30.192Z,100908.31
2022-09-10T07:24:01.119Z,100910.28
2022-09-10T07:26:29.418Z,100923.88
2022-09-10T07:28:57.818Z,100915.91
2022-09-10T07:31:28.251Z,100920.88
2022-09-10T07:33:55.842Z,100927.91
2022-09-10T07:36:23.303Z,100933.91
2022-09-10T07:38:54.240Z,100940.69
2022-09-10T07:41:22.556Z,100928.69
2022-09-10T07:43:54.577Z,100927.47
2022-09-10T07:46:23.040Z,100933.19
2022-09-10T07:49:01.552Z,100936.81
2022-09-10T07:51:32.984Z,100933.97
2022-09-10T07:54:00.743Z,100941.34
2022-09-10T07:56:31.859Z,100940.81
2022-09-10T07:58:59.355Z,100945.16
2022-09-10T08:01:26.932Z,100953.84
2022-09-10T08:03:58.535Z,100945.13
2022-09-10T08:06:26.318Z,100946.09
2022-09-10T08:08:53.973Z,100946.88
2022-09-10T08:11:22.326Z,100949.56
2022-09-10T08:13:52.318Z,100946.00
2022-09-10T08:16:23.009Z,100944.28
2022-09-10T08:18:51.632Z,100957.31
2022-09-10T08:21:20.527Z,100953.66
2022-09-10T08:23:53.950Z,100957.19
2022-09-10T08:26:23.640Z,100963.97
2022-09-10T08:28:55.800Z,100964.09
2022-09-10T08:31:24.740Z,100960.84
2022-09-10T08:33:54.876Z,100968.03
2022-09-10T08:36:23.262Z,100976.03
2022-09-10T08:38:51.745Z,100979.91
2022-09-10T08:41:48.078Z,100974.13
2022-09-10T08:44:22.654Z,100975.03
2022-09-10T08:47:08.415Z,100971.00
2022-09-10T08:49:59.057Z,100969.38
2022-09-10T08:52:42.871Z,100979.03
2022-09-10T08:55:20.304Z,100982.06
2022-09-10T08:58:03.327Z,100989.81
2022-09-10T09:00:38.147Z,101000.75
2022-09-10T09:03:32.717Z,100994.59
2022-09-10T09:06:06.626Z,101000.81
2022-09-10T09:08:41.257Z,101008.41
2022-09-10T09:11:21.296Z,101020.25
2022-09-10T09:14:10.306Z,101012.91
2022-09-10T09:17:08.632Z,101013.38
2022-09-10T09:19:49.899Z,101015.03
2022-09-10T09:22:21.846Z,101003.53
2022-09-10T09:25:00.713Z,101001.88
2022-09-10T09:27:34.919Z,100996.53
2022-09-10T09:30:07.980Z,100996.88
2022-09-10T09:32:40.997Z,100988.28
2022-09-10T09:35:34.722Z,101006.34
2022-09-10T09:38:08.308Z,101002.59
2022-09-10T09:40:56.311Z,101013.16
2022-09-10T09:43:32.781Z,101018.69
2022-09-10T09:46:01.281Z,101022.53
2022-09-10T09:48:36.306Z,101030.16
2022-09-10T09:51:05.835Z,101038.19
2022-09-10T09:53:33.369Z,101038.63
2022-09-10T09:56:07.774Z,101037.56
2022-09-10T09:58:39.943Z,101036.56
2022-09-10T10:01:08.186Z,101049.66
2022-09-10T10:03:48.470Z,101046.66
2022-09-10T10:06:17.394Z,101039.31
2022-09-10T10:08:54.265Z,101053.41
2022-09-10T10:11:23.079Z,101046.94
2022-09-10T10:13:52.929Z,101051.84
2022-09-10T10:16:26.765Z,101045.59
2022-09-10T10:18:54.300Z,101050.38
2022-09-10T10:21:44.937Z,101054.53
2022-09-10T10:24:33.117Z,101059.31
2022-09-10T10:27:01.487Z,101064.41
2022-09-10T10:29:29.210Z,101072.31
2022-09-10T10:31:57.429Z,101066.16
2022-09-10T10:34:53.890Z,101080.56
2022-09-10T10:37:23.951Z,101079.31
2022-09-10T10:40:39.249Z,101074.34
2022-09-10T10:43:18.382Z,101083.56
2022-09-10T10:46:18.298Z,101080.56
2022-09-10T10:49:07.076Z,101071.94
2022-09-10T10:51:44.078Z,101076.81
2022-09-10T10:54:49.457Z,101080.38
2022-09-10T10:57:43.226Z,101079.97
2022-09-10T11:00:15.693Z,101092.28
2022-09-10T11:02:54.512Z,101088.03
2022-09-10T11:05:33.360Z,101092.16
2022-09-10T11:08:08.821Z,101095.44
2022-09-10T11:10:43.604Z,101099.16
2022-09-10T11:13:25.682Z,101101.59
2022-09-10T11:16:02.405Z,101091.09
2022-09-10T11:18:37.868Z,101100.03
2022-09-10T11:21:30.187Z,101105.91
2022-09-10T11:23:57.607Z,101104.09
2022-09-10T11:26:34.135Z,101068.53
2022-09-10T11:29:22.315Z,101107.75
2022-09-10T11:32:05.428Z,101108.19
2022-09-10T11:34:36.374Z,101123.56
2022-09-10T11:37:48.451Z,101121.25
2022-09-10T11:40:39.158Z,101117.34
2022-09-10T11:43:27.156Z,101111.88
2022-09-10T11:45:58.812Z,101120.50
2022-09-10T11:48:30.918Z,101107.69
2022-09-10T11:51:06.727Z,101118.94
2022-09-10T11:53:34.985Z,101131.16
2022-09-10T11:56:07.861Z,101137.53
2022-09-10T11:58:41.466Z,101129.53
2022-09-10T12:01:08.930Z,101139.28
2022-09-10T12:03:44.190Z,101144.28
2022-09-10T12:06:14.315Z,101145.53
2022-09-10T12:09:06.044Z,101139.44
2022-09-10T12:11:58.758Z,101136.50
2022-09-10T12:14:26.319Z,101138.59
2022-09-10T12:16:59.708Z,101141.78
2022-09-10T12:19:31.948Z,101145.69
2022-09-10T12:22:20.816Z,101154.16
2022-09-10T12:25:18.379Z,101144.66
2022-09-10T12:27:57.746Z,101141.19
2022-09-10T12:30:29.145Z,101142.03
2022-09-10T12:33:01.350Z,101140.97
2022-09-10T12:35:32.824Z,101144.78
2022-09-10T12:38:38.117Z,101149.50
2022-09-10T12:41:10.463Z,101150.91
2022-09-10T12:43:40.745Z,101150.00
2022-09-10T12:46:08.333Z,101158.16
2022-09-10T12:48:44.979Z,101158.75
2022-09-10T12:51:18.188Z,101156.78
2022-09-10T12:53:55.827Z,101159.59
2022-09-10T12:56:29.139Z,101159.69
2022-09-10T12:59:20.898Z,101153.22
2022-09-10T13:01:51.353Z,101153.53
2022-09-10T13:04:29.894Z,101170.31
2022-09-10T13:07:03.571Z,101170.69
2022-09-10T13:09:37.118Z,101155.75
2022-09-10T13:12:17.494Z,101170.38
2022-09-10T13:14:52.762Z,101164.06
2022-09-10T13:17:42.287Z,101179.22
2022-09-10T13:20:15.699Z,101176.19
2022-09-10T13:23:21.678Z,101186.44
2022-09-10T13:25:51.358Z,101186.53
2022-09-10T13:28:31.360Z,101187.44
2022-09-10T13:31:01.637Z,101185.75
2022-09-10T13:33:34.216Z,101189.84
2022-09-10T13:36:18.048Z,101185.13
2022-09-10T13:39:07.701Z,101185.38
2022-09-10T13:42:10.829Z,101184.06
2022-09-10T13:44:46.739Z,101184.69
2022-09-10T13:47:20.359Z,101188.59
2022-09-10T13:49:59.328Z,101193.88
2022-09-10T13:52:32.125Z,101196.28
2022-09-10T13:55:01.894Z,101190.16
2022-09-10T13:57:34.454Z,101199.44
2022-09-10T14:00:09.614Z,101205.34
2022-09-10T14:02:52.752Z,101199.44
2022-09-10T14:05:34.605Z,101207.50
2022-09-10T14:08:15.405Z,101211.09
2022-09-10T14:10:57.592Z,101216.81
2022-09-10T14:14:00.096Z,101214.03
2022-09-10T14:16:34.885Z,101220.34
2022-09-10T14:19:06.728Z,101224.44
2022-09-10T14:21:34.938Z,101231.63
2022-09-10T14:24:03.274Z,101234.22
2022-09-10T14:26:33.656Z,101222.00
2022-09-10T14:29:03.518Z,101235.22
2022-09-10T14:31:38.376Z,101233.94
2022-09-10T14:34:34.871Z,101233.09
2022-09-10T14:37:22.716Z,101231.16
2022-09-10T14:39:51.697Z,101241.50
2022-09-10T14:42:28.332Z,101245.72
2022-09-10T14:44:55.801Z,101247.44
2022-09-10T14:47:37.002Z,101248.38
2022-09-10T14:50:31.979Z,101245.97
2022-09-10T14:52:59.992Z,101248.88
2022-09-10T14:55:30.633Z,101243.00
2022-09-10T14:57:58.543Z,101249.25
2022-09-10T15:00:26.862Z,101244.38
2022-09-10T15:02:57.268Z,101257.38
2022-09-10T15:05:24.874Z,101258.00
2022-09-10T15:07:52.328Z,101255.38
2022-09-10T15:10:20.689Z,101259.00
2022-09-10T15:12:52.044Z,101261.91
2022-09-10T15:15:19.543Z,101263.88
2022-09-10T15:17:47.023Z,101263.69
2022-09-10T15:20:17.784Z,101269.13
2022-09-10T15:22:45.931Z,101270.03
2022-09-10T15:25:38.895Z,101271.75
2022-09-10T15:28:07.506Z,101276.69
2022-09-10T15:30:36.726Z,101282.72
2022-09-10T15:33:06.154Z,101284.03
2022-09-10T15:35:33.835Z,101289.13
2022-09-10T15:38:02.016Z,101295.34
2022-09-10T15:40:29.517Z,101290.06
2022-09-10T15:42:57.743Z,101296.28
2022-09-10T15:45:25.456Z,101293.75
2022-09-10T15:47:54.897Z,101299.75
2022-09-10T15:50:22.415Z,101301.50
2022-09-10T15:52:49.942Z,101300.84
2022-09-10T15:55:19.475Z,101297.44
2022-09-10T15:57:49.947Z,101302.19
2022-09-10T16:00:18.417Z,101313.31
2022-09-10T16:02:51.861Z,101304.59
2022-09-10T16:05:22.099Z,101310.75
2022-09-10T16:07:49.587Z,101312.97
2022-09-10T16:10:17.661Z,101305.94
2022-09-10T16:12:45.219Z,101313.56
2022-09-10T16:15:12.674Z,101318.97
2022-09-10T16:17:40.833Z,101320.34
2022-09-10T16:20:08.557Z,101319.41
2022-09-10T16:22:36.134Z,101330.69
2022-09-10T16:25:07.190Z,101322.72
2022-09-10T16:27:34.888Z,101337.81
2022-09-10T16:30:02.530Z,101336.09
2022-09-10T16:32:30.645Z,101325.03
2022-09-10T16:34:58.093Z,101331.72
2022-09-10T16:37:26.160Z,101343.19
2022-09-10T16:39:53.690Z,101340.81
2022-09-10T16:42:21.404Z,101351.56
2022-09-10T16:44:49.145Z,101357.06
2022-09-10T16:47:16.617Z,101364.38
2022-09-10T16:49:44.089Z,101360.94
2022-09-10T16:52:12.013Z,101347.97
2022-09-10T16:54:40.069Z,101362.31
2022-09-10T16:57:08.387Z,101365.00
2022-09-10T16:59:36.129Z,101375.69
2022-09-10T17:02:04.711Z,101374.22
2022-09-10T17:04:32.414Z,101380.50
2022-09-10T17:06:59.887Z,101390.03
2022-09-10T17:09:27.340Z,101386.63
2022-09-10T17:11:54.901Z,101383.16
2022-09-10T17:14:22.462Z,101391.19
2022-09-10T17:16:50.298Z,101385.50
2022-09-10T17:19:23.443Z,101394.00
2022-09-10T17:21:53.121Z,101395.94
2022-09-10T17:24:26.082Z,101402.22
2022-09-10T17:26:55.109Z,101402.22
2022-09-10T17:29:25.433Z,101399.78
2022-09-10T17:31:55.038Z,101409.69
2022-09-10T17:34:24.416Z,101412.44
2022-09-10T17:36:52.649Z,101410.72
2022-09-10T17:39:20.110Z,101420.66
2022-09-10T17:41:48.266Z,101424.19
2022-09-10T17:44:18.071Z,101428.72
2022-09-10T17:46:46.358Z,101425.44
2022-09-10T17:49:15.455Z,101427.44
2022-09-10T17:51:43.390Z,101443.44
2022-09-10T17:54:11.855Z,101444.50
2022-09-10T17:56:41.610Z,101449.03
2022-09-10T17:59:09.071Z,101444.00
2022-09-10T18:01:38.946Z,101441.50
2022-09-10T18:04:08.080Z,101445.91
2022-09-10T18:06:37.593Z,101449.63
2022-09-10T18:09:07.769Z,101466.44
2022-09-10T18:11:38.405Z,101465.81
2022-09-10T18:14:07.118Z,101471.25
2022-09-10T18:16:36.147Z,101432.44
2022-09-10T18:19:13.731Z,101480.22
2022-09-10T18:21:42.477Z,101483.81
2022-09-10T18:24:18.952Z,101484.00
2022-09-10T18:26:49.274Z,101492.88
2022-09-10T18:29:22.878Z,101494.72
2022-09-10T18:31:56.782Z,101493.25
2022-09-10T18:34:27.585Z,101503.78
2022-09-10T18:37:02.068Z,101506.53
2022-09-10T18:39:31.730Z,101513.63
2022-09-10T18:42:00.917Z,101519.03
2022-09-10T18:44:33.080Z,101523.47
2022-09-10T18:47:00.903Z,101526.19
2022-09-10T18:49:28.450Z,101528.09
2022-09-10T18:51:57.616Z,101536.06
2022-09-10T18:54:28.606Z,101543.19
2022-09-10T18:56:57.393Z,101538.13
2022-09-10T18:59:26.623Z,101554.69
2022-09-10T19:01:55.801Z,101553.06
2022-09-10T19:04:26.379Z,101559.22
2022-09-10T19:06:54.746Z,101575.06
2022-09-10T19:09:24.843Z,101572.59
2022-09-10T19:11:54.395Z,101577.06
2022-09-10T19:14:26.331Z,101573.63
2022-09-10T19:16:56.371Z,101587.66
2022-09-10T19:19:32.446Z,101580.75
2022-09-10T19:22:03.490Z,101583.41
2022-09-10T19:24:53.318Z,101592.22
2022-09-10T19:27:20.338Z,101599.25
2022-09-10T19:29:49.609Z,101604.59
2022-09-10T19:32:17.247Z,101610.69
2022-09-10T19:34:44.825Z,101619.47
2022-09-10T19:37:12.933Z,101616.84
2022-09-10T19:39:40.413Z,101616.00
2022-09-10T19:42:08.046Z,101630.03
2022-09-10T19:44:35.512Z,101620.41
2022-09-10T19:47:03.995Z,101630.03
2022-09-10T19:49:31.621Z,101631.84
2022-09-10T19:51:59.077Z,101619.63
2022-09-10T19:54:28.245Z,101635.44
2022-09-10T19:56:56.488Z,101628.44
2022-09-10T19:59:24.122Z,101636.41
2022-09-10T20:01:51.723Z,101639.06
2022-09-10T20:04:19.263Z,101639.88
2022-09-10T20:06:47.688Z,101644.28
2022-09-10T20:09:15.194Z,101633.81
2022-09-10T20:11:42.916Z,101635.59
2022-09-10T20:14:14.945Z,101646.03
2022-09-10T20:16:46.678Z,101655.66
2022-09-10T20:19:18.181Z,101653.09
2022-09-10T20:21:47.452Z,101656.59
2022-09-10T20:24:15.529Z,101660.13
2022-09-10T20:26:43.765Z,101658.44
2022-09-10T20:29:17.785Z,101660.28
2022-09-10T20:31:46.990Z,101656.75
2022-09-10T20:34:17.169Z,101667.31
2022-09-10T20:36:46.978Z,101656.88
2022-09-10T20:39:17.065Z,101656.94
2022-09-10T20:41:45.390Z,101668.31
2022-09-10T20:44:16.106Z,101657.00
2022-09-10T20:46:44.094Z,101666.66
2022-09-10T20:49:13.640Z,101667.50
2022-09-10T20:51:41.432Z,101664.06
2022-09-10T20:54:13.409Z,101665.81
2022-09-10T20:56:40.990Z,101662.41
2022-09-10T20:59:08.550Z,101662.47
2022-09-10T21:01:36.083Z,101662.53
2022-09-10T21:04:04.109Z,101675.69
2022-09-10T21:06:33.434Z,101673.06
2022-09-10T21:09:02.101Z,101677.44
2022-09-10T21:11:31.853Z,101676.63
2022-09-10T21:14:02.897Z,101677.53
2022-09-10T21:16:32.906Z,101680.22
2022-09-10T21:19:07.686Z,101680.25
2022-09-10T21:21:36.523Z,101694.25
2022-09-10T21:24:07.407Z,101684.75
2022-09-10T21:26:38.263Z,101702.19
2022-09-10T21:29:12.125Z,101696.13
2022-09-10T21:31:40.388Z,101696.16
2022-09-10T21:34:08.380Z,101703.13
2022-09-10T21:36:37.822Z,101704.91
2022-09-10T21:39:07.593Z,101708.41
2022-09-10T21:41:37.744Z,101703.16
2022-09-10T21:44:09.320Z,101710.19
2022-09-10T21:46:37.011Z,101709.31
2022-09-10T21:49:05.046Z,101718.94
2022-09-10T21:51:33.399Z,101710.25
2022-09-10T21:54:00.907Z,101710.31
2022-09-10T21:56:29.756Z,101713.84
2022-09-10T21:59:00.078Z,101720.88
2022-09-10T22:01:30.678Z,101727.91
2022-09-10T22:04:00.609Z,101714.84
2022-09-10T22:06:30.272Z,101713.97
2022-09-10T22:09:00.430Z,101719.16
2022-09-10T22:11:34.265Z,101721.81
2022-09-10T22:14:08.085Z,101710.59
2022-09-10T22:16:36.469Z,101736.75
2022-09-10T22:19:07.844Z,101735.91
2022-09-10T22:21:38.293Z,101743.81
2022-09-10T22:24:07.088Z,101743.84
2022-09-10T22:26:35.352Z,101744.72
2022-09-10T22:29:03.362Z,101752.56
2022-09-10T22:31:34.356Z,101750.75
2022-09-10T22:34:02.969Z,101755.97
2022-09-10T22:36:34.022Z,101733.38
2022-09-10T22:39:07.697Z,101747.28
2022-09-10T22:41:37.542Z,101747.38
2022-09-10T22:44:05.976Z,101749.09
2022-09-10T22:46:35.232Z,101747.38
2022-09-10T22:49:02.774Z,101758.78
2022-09-10T22:51:34.222Z,101749.19
2022-09-10T22:54:02.667Z,101759.69
2022-09-10T22:56:30.775Z,101757.97
2022-09-10T22:59:00.022Z,101765.91
2022-09-10T23:01:32.113Z,101776.38
2022-09-10T23:04:01.504Z,101771.16
2022-09-10T23:06:32.970Z,101779.03
2022-09-10T23:09:25.505Z,101779.94
2022-09-10T23:11:53.272Z,101788.69
2022-09-10T23:14:22.010Z,101789.59
2022-09-10T23:16:51.710Z,101796.59
2022-09-10T23:19:24.398Z,101791.38
2022-09-10T23:21:56.321Z,101796.66
2022-09-10T23:24:26.300Z,101792.25
2022-09-10T23:26:54.201Z,101792.25
2022-09-10T23:29:23.850Z,101787.94
2022-09-10T23:31:53.284Z,101793.16
2022-09-10T23:34:21.497Z,101793.16
2022-09-10T23:36:50.019Z,101789.72
2022-09-10T23:39:20.501Z,101791.47
2022-09-10T23:41:49.382Z,101793.25
2022-09-10T23:44:17.638Z,101789.75
2022-09-10T23:46:45.645Z,101791.56
2022-09-10T23:49:13.436Z,101805.47
2022-09-10T23:51:41.658Z,101810.75
2022-09-10T23:54:10.943Z,101803.75
2022-09-10T23:56:39.044Z,101806.44
2022-09-10T23:59:06.626Z,101819.50
